createdAt,value
2018-07-06T00:02:28.849Z,99.90
2018-07-06T00:05:08.618Z,99.90
2018-07-06T00:07:48.322Z,99.90
2018-07-06T00:10:28.086Z,99.90
2018-07-06T00:13:07.816Z,99.90
2018-07-06T00:15:47.574Z,99.90
2018-07-06T00:18:28.351Z,99.90
2018-07-06T00:21:08.340Z,99.90
2018-07-06T00:23:48.054Z,99.90
2018-07-06T00:26:27.698Z,99.90
2018-07-06T00:29:07.426Z,99.90
2018-07-06T00:31:47.206Z,99.90
2018-07-06T00:34:26.904Z,99.90
2018-07-06T00:37:06.584Z,99.90
2018-07-06T00:39:46.417Z,99.90
2018-07-06T00:42:26.286Z,99.90
2018-07-06T00:45:05.816Z,99.90
2018-07-06T00:47:45.629Z,99.90
2018-07-06T00:50:25.235Z,99.90
2018-07-06T00:53:04.958Z,99.90
2018-07-06T00:55:44.752Z,99.90
2018-07-06T00:58:24.861Z,99.90
2018-07-06T01:01:04.716Z,99.90
2018-07-06T01:03:44.441Z,99.90
2018-07-06T01:06:24.177Z,99.90
2018-07-06T01:09:04.751Z,99.90
2018-07-06T01:11:44.588Z,99.90
2018-07-06T01:14:24.342Z,99.90
2018-07-06T01:17:04.182Z,99.90
2018-07-06T01:19:43.974Z,99.90
2018-07-06T01:22:23.799Z,99.90
2018-07-06T01:25:03.633Z,99.90
2018-07-06T01:27:43.277Z,99.90
2018-07-06T01:30:23.045Z,99.90
2018-07-06T01:33:02.775Z,99.90
2018-07-06T01:35:42.516Z,99.90
2018-07-06T01:38:22.255Z,99.90
2018-07-06T01:41:02.233Z,99.90
2018-07-06T01:43:41.965Z,99.90
2018-07-06T01:46:21.727Z,99.90
2018-07-06T01:49:01.449Z,99.90
2018-07-06T01:51:41.115Z,99.90
2018-07-06T01:54:20.897Z,99.90
2018-07-06T01:57:00.699Z,99.90
2018-07-06T01:59:40.529Z,99.90
2018-07-06T02:02:20.211Z,99.90
2018-07-06T02:05:00.124Z,99.90
2018-07-06T02:07:39.839Z,99.90
2018-07-06T02:10:19.658Z,99.90
2018-07-06T02:12:59.603Z,99.90
2018-07-06T02:15:39.573Z,99.90
2018-07-06T02:18:19.309Z,99.90
2018-07-06T02:20:58.905Z,99.90
2018-07-06T02:23:38.539Z,99.90
2018-07-06T02:28:52.137Z,99.90
2018-07-06T02:31:31.853Z,99.90
2018-07-06T02:34:11.432Z,99.90
2018-07-06T02:36:51.149Z,99.90
2018-07-06T02:39:30.813Z,99.90
2018-07-06T02:42:10.525Z,99.90
2018-07-06T02:44:50.298Z,99.90
2018-07-06T02:47:30.017Z,99.90
2018-07-06T02:50:09.886Z,99.90
2018-07-06T02:52:49.560Z,99.90
2018-07-06T02:55:29.406Z,99.90
2018-07-06T02:58:09.234Z,99.90
2018-07-06T03:00:49.110Z,99.90
2018-07-06T03:03:29.077Z,99.90
2018-07-06T03:06:09.000Z,99.90
2018-07-06T03:08:48.840Z,99.90
2018-07-06T03:11:28.728Z,99.90
2018-07-06T03:14:08.426Z,99.90
2018-07-06T03:16:48.234Z,99.90
2018-07-06T03:19:28.016Z,99.90
2018-07-06T03:22:07.707Z,99.90
2018-07-06T03:24:47.406Z,99.90
2018-07-06T03:27:27.286Z,99.90
2018-07-06T03:30:08.267Z,99.90
2018-07-06T03:32:48.150Z,99.90
2018-07-06T03:35:27.936Z,99.90
2018-07-06T03:38:07.799Z,99.90
2018-07-06T03:40:47.536Z,99.90
2018-07-06T03:43:27.420Z,99.90
2018-07-06T03:46:07.381Z,99.90
2018-07-06T03:48:47.173Z,99.90
2018-07-06T03:51:26.929Z,99.90
2018-07-06T03:54:06.680Z,99.90
2018-07-06T03:56:46.513Z,99.90
2018-07-06T03:59:26.167Z,99.90
2018-07-06T04:02:06.027Z,99.90
2018-07-06T04:04:45.778Z,99.90
2018-07-06T04:07:25.684Z,99.90
2018-07-06T04:10:05.464Z,99.90
2018-07-06T04:12:45.203Z,99.90
2018-07-06T04:15:25.042Z,99.90
2018-07-06T04:18:04.763Z,99.90
2018-07-06T04:20:44.573Z,99.90
2018-07-06T04:23:24.291Z,99.90
2018-07-06T04:26:03.923Z,99.90
2018-07-06T04:28:43.499Z,99.90
2018-07-06T04:31:23.293Z,99.90
2018-07-06T04:34:03.137Z,99.90
2018-07-06T04:36:43.037Z,99.90
2018-07-06T04:39:22.899Z,99.90
2018-07-06T04:42:02.631Z,99.90
2018-07-06T04:44:42.405Z,99.90
2018-07-06T04:47:22.309Z,99.90
2018-07-06T04:52:35.840Z,99.90
2018-07-06T04:57:49.593Z,99.90
2018-07-06T05:00:29.271Z,99.90
2018-07-06T05:03:09.047Z,99.90
2018-07-06T05:05:48.749Z,99.90
2018-07-06T05:08:28.640Z,99.90
2018-07-06T05:11:08.440Z,99.90
2018-07-06T05:16:21.821Z,99.90
2018-07-06T05:19:02.571Z,99.90
2018-07-06T05:21:42.462Z,99.90
2018-07-06T05:24:22.289Z,99.90
2018-07-06T05:27:03.043Z,99.90
2018-07-06T05:29:42.686Z,99.90
2018-07-06T05:32:22.422Z,99.90
2018-07-06T05:35:02.205Z,99.90
2018-07-06T05:37:42.092Z,99.90
2018-07-06T05:40:22.193Z,99.90
2018-07-06T05:43:01.899Z,99.90
2018-07-06T05:45:41.709Z,99.90
2018-07-06T05:48:21.391Z,99.90
2018-07-06T05:51:01.089Z,99.90
2018-07-06T05:53:41.062Z,99.90
2018-07-06T05:56:20.993Z,99.90
2018-07-06T05:59:00.941Z,99.90
2018-07-06T06:01:40.749Z,99.90
2018-07-06T06:04:20.697Z,99.90
2018-07-06T06:07:00.572Z,99.90
2018-07-06T06:09:29.074Z,99.90
2018-07-06T06:11:57.929Z,99.90
2018-07-06T06:14:26.536Z,99.90
2018-07-06T06:16:55.105Z,99.90
2018-07-06T06:19:23.734Z,99.90
2018-07-06T06:21:52.385Z,99.90
2018-07-06T06:24:20.965Z,99.90
2018-07-06T06:29:17.588Z,99.90
2018-07-06T06:31:46.226Z,99.90
2018-07-06T06:34:14.821Z,99.90
2018-07-06T06:36:43.604Z,99.90
2018-07-06T06:39:12.081Z,99.90
2018-07-06T06:41:40.629Z,99.90
2018-07-06T06:44:09.267Z,99.90
2018-07-06T06:46:37.790Z,99.90
2018-07-06T06:49:06.232Z,99.90
2018-07-06T06:51:35.076Z,99.90
2018-07-06T06:54:03.656Z,99.90
2018-07-06T06:56:32.189Z,99.90
2018-07-06T06:59:00.742Z,99.90
2018-07-06T07:01:29.337Z,99.90
2018-07-06T07:03:57.964Z,99.90
2018-07-06T07:06:26.521Z,99.90
2018-07-06T07:08:55.282Z,99.90
2018-07-06T07:13:52.250Z,99.90
2018-07-06T07:16:20.627Z,99.90
2018-07-06T07:18:49.204Z,99.90
2018-07-06T07:21:17.856Z,99.90
2018-07-06T07:23:46.393Z,99.90
2018-07-06T07:26:14.899Z,99.90
2018-07-06T07:28:43.568Z,99.90
2018-07-06T07:31:12.018Z,99.90
2018-07-06T07:33:40.504Z,99.90
2018-07-06T07:36:09.134Z,99.90
2018-07-06T07:38:37.684Z,99.90
2018-07-06T07:41:06.382Z,99.90
2018-07-06T07:43:34.920Z,99.90
2018-07-06T07:46:03.457Z,99.90
2018-07-06T07:48:31.940Z,99.90
2018-07-06T07:51:11.714Z,99.90
2018-07-06T07:53:51.663Z,99.90
2018-07-06T07:56:20.216Z,99.90
2018-07-06T07:58:48.741Z,99.90
2018-07-06T08:01:17.390Z,99.90
2018-07-06T08:03:45.861Z,99.90
2018-07-06T08:06:14.433Z,99.90
2018-07-06T08:08:43.077Z,99.90
2018-07-06T08:11:11.622Z,99.90
2018-07-06T08:13:40.203Z,99.90
2018-07-06T08:16:08.750Z,99.90
2018-07-06T08:21:05.394Z,99.90
2018-07-06T08:23:33.857Z,99.90
2018-07-06T08:26:02.392Z,99.90
2018-07-06T08:28:30.912Z,99.90
2018-07-06T08:30:59.470Z,99.90
2018-07-06T08:40:18.996Z,99.90
2018-07-06T08:42:48.691Z,99.90
2018-07-06T08:45:17.400Z,99.90
2018-07-06T08:47:46.317Z,99.90
2018-07-06T08:50:17.701Z,99.90
2018-07-06T08:52:47.439Z,99.90
2018-07-06T08:55:16.030Z,99.90
2018-07-06T08:57:45.636Z,99.90
2018-07-06T09:00:14.440Z,99.90
2018-07-06T09:02:42.899Z,99.90
2018-07-06T09:05:12.202Z,99.90
2018-07-06T09:07:40.748Z,99.90
2018-07-06T09:10:09.381Z,99.90
2018-07-06T09:12:38.397Z,99.90
2018-07-06T09:15:07.379Z,99.90
2018-07-06T09:17:35.854Z,99.90
2018-07-06T09:20:04.569Z,99.90
2018-07-06T09:22:33.161Z,99.90
2018-07-06T09:25:02.927Z,99.90
2018-07-06T09:27:31.373Z,99.90
2018-07-06T09:29:59.863Z,99.90
2018-07-06T09:32:28.356Z,99.90
2018-07-06T09:34:56.975Z,99.90
2018-07-06T09:37:25.492Z,99.90
2018-07-06T09:39:54.425Z,99.90
2018-07-06T09:42:23.469Z,99.90
2018-07-06T09:44:51.797Z,99.90
2018-07-06T09:47:20.233Z,99.90
2018-07-06T09:49:48.781Z,99.90
2018-07-06T09:52:17.420Z,99.90
2018-07-06T09:54:45.893Z,99.90
2018-07-06T09:57:14.396Z,99.90
2018-07-06T09:59:42.914Z,99.90
2018-07-06T10:02:11.393Z,99.90
2018-07-06T10:04:39.892Z,99.90
2018-07-06T10:07:08.561Z,99.90
2018-07-06T10:09:37.110Z,99.90
2018-07-06T10:12:05.792Z,99.90
2018-07-06T10:14:34.336Z,99.90
2018-07-06T10:17:02.817Z,99.90
2018-07-06T10:19:31.355Z,99.90
2018-07-06T10:21:59.861Z,99.90
2018-07-06T10:24:28.671Z,99.90
2018-07-06T10:26:57.150Z,99.90
2018-07-06T10:29:36.724Z,99.90
2018-07-06T10:32:21.942Z,99.90
2018-07-06T10:34:50.549Z,99.90
2018-07-06T10:37:19.720Z,99.90
2018-07-06T10:39:49.157Z,99.90
2018-07-06T10:42:17.839Z,99.90
2018-07-06T10:44:46.316Z,99.90
2018-07-06T10:47:15.086Z,99.90
2018-07-06T10:49:44.009Z,99.90
2018-07-06T10:52:13.297Z,99.90
2018-07-06T10:54:42.590Z,99.90
2018-07-06T10:57:11.146Z,99.90
2018-07-06T11:04:36.559Z,99.90
2018-07-06T11:07:05.071Z,99.90
2018-07-06T11:09:33.637Z,99.90
2018-07-06T11:12:02.181Z,99.90
2018-07-06T11:14:30.639Z,99.90
2018-07-06T11:16:59.164Z,99.60
2018-07-06T11:19:27.650Z,99.20
2018-07-06T11:21:56.120Z,99.50
2018-07-06T11:24:24.775Z,99.90
2018-07-06T11:26:53.227Z,99.90
2018-07-06T11:29:21.694Z,99.90
2018-07-06T11:31:50.198Z,99.90
2018-07-06T11:34:18.648Z,99.90
2018-07-06T11:36:47.283Z,98.40
2018-07-06T11:39:15.855Z,97.90
2018-07-06T11:41:44.306Z,96.00
2018-07-06T11:44:12.805Z,96.20
2018-07-06T11:46:41.271Z,97.10
2018-07-06T11:49:09.819Z,95.50
2018-07-06T11:51:38.288Z,95.20
2018-07-06T11:54:06.880Z,95.10
2018-07-06T11:59:03.743Z,96.60
2018-07-06T12:01:32.227Z,95.10
2018-07-06T12:04:00.755Z,94.70
2018-07-06T12:06:29.239Z,95.60
2018-07-06T12:08:57.869Z,94.60
2018-07-06T12:11:26.434Z,94.50
2018-07-06T12:13:54.944Z,95.00
2018-07-06T12:16:23.409Z,95.20
2018-07-06T12:18:52.017Z,95.40
2018-07-06T12:21:20.615Z,94.80
2018-07-06T12:23:49.047Z,95.30
2018-07-06T12:26:17.538Z,95.70
2018-07-06T12:28:46.039Z,95.80
2018-07-06T12:31:14.729Z,96.10
2018-07-06T12:33:43.210Z,96.40
2018-07-06T12:36:11.743Z,95.10
2018-07-06T12:38:40.185Z,96.10
2018-07-06T12:41:08.832Z,95.40
2018-07-06T12:43:37.340Z,94.80
2018-07-06T12:48:34.142Z,95.80
2018-07-06T12:51:02.604Z,95.50
2018-07-06T12:53:31.071Z,95.70
2018-07-06T12:55:59.530Z,94.90
2018-07-06T13:00:56.216Z,94.10
2018-07-06T13:03:24.695Z,94.20
2018-07-06T13:05:53.265Z,94.60
2018-07-06T13:08:21.847Z,94.20
2018-07-06T13:10:50.340Z,94.80
2018-07-06T13:13:18.820Z,94.20
2018-07-06T13:18:15.622Z,94.50
2018-07-06T13:20:44.108Z,95.20
2018-07-06T13:23:12.604Z,96.30
2018-07-06T13:25:41.079Z,96.40
2018-07-06T13:28:09.524Z,96.80
2018-07-06T13:30:38.097Z,96.80
2018-07-06T13:33:06.659Z,96.70
2018-07-06T13:35:35.145Z,97.50
2018-07-06T13:38:03.734Z,97.10
2018-07-06T13:40:32.346Z,96.70
2018-07-06T13:43:00.837Z,97.20
2018-07-06T13:45:29.321Z,96.40
2018-07-06T13:47:57.784Z,96.00
2018-07-06T13:50:26.284Z,95.50
2018-07-06T13:52:54.826Z,95.20
2018-07-06T13:55:23.264Z,95.50
2018-07-06T13:57:51.839Z,95.40
2018-07-06T14:00:20.342Z,95.30
2018-07-06T14:02:48.858Z,95.80
2018-07-06T14:05:17.394Z,95.40
2018-07-06T14:07:45.872Z,95.70
2018-07-06T14:10:14.408Z,95.50
2018-07-06T14:12:42.871Z,95.40
2018-07-06T14:15:11.375Z,95.60
2018-07-06T14:17:39.847Z,96.30
2018-07-06T14:20:08.372Z,96.20
2018-07-06T14:22:37.516Z,95.80
2018-07-06T14:25:06.030Z,96.50
2018-07-06T14:27:34.524Z,96.40
2018-07-06T14:30:03.110Z,96.10
2018-07-06T14:32:33.105Z,96.20
2018-07-06T14:35:02.550Z,96.40
2018-07-06T14:37:31.049Z,96.30
2018-07-06T14:39:59.539Z,95.80
2018-07-06T14:42:28.300Z,96.60
2018-07-06T14:44:56.813Z,95.80
2018-07-06T14:47:25.572Z,95.30
2018-07-06T14:49:54.144Z,95.10
2018-07-06T14:52:22.615Z,94.50
2018-07-06T14:57:20.250Z,95.50
2018-07-06T14:59:48.802Z,95.80
2018-07-06T15:02:17.339Z,95.70
2018-07-06T15:04:46.506Z,94.50
2018-07-06T15:07:15.102Z,94.60
2018-07-06T15:09:43.594Z,94.60
2018-07-06T15:12:12.280Z,95.40
2018-07-06T15:14:41.008Z,95.10
2018-07-06T15:17:09.478Z,94.60
2018-07-06T15:19:38.085Z,94.40
2018-07-06T15:22:06.732Z,95.00
2018-07-06T15:24:35.454Z,94.50
2018-07-06T15:27:03.965Z,94.90
2018-07-06T15:29:32.470Z,94.70
2018-07-06T15:32:01.086Z,94.70
2018-07-06T15:34:29.572Z,94.70
2018-07-06T15:36:58.593Z,94.80
2018-07-06T15:39:29.895Z,95.30
2018-07-06T15:41:58.414Z,95.20
2018-07-06T15:44:26.923Z,95.20
2018-07-06T15:46:55.413Z,95.30
2018-07-06T15:49:23.997Z,95.80
2018-07-06T15:51:52.469Z,95.70
2018-07-06T15:54:20.912Z,96.00
2018-07-06T15:56:49.417Z,96.10
2018-07-06T15:59:17.858Z,95.80
2018-07-06T16:01:46.403Z,95.80
2018-07-06T16:04:14.974Z,95.20
2018-07-06T16:06:43.522Z,95.90
2018-07-06T16:09:12.078Z,96.00
2018-07-06T16:11:40.673Z,96.30
2018-07-06T16:14:09.192Z,95.90
2018-07-06T16:16:37.743Z,96.20
2018-07-06T16:19:07.102Z,96.10
2018-07-06T16:21:35.655Z,96.80
2018-07-06T16:24:04.208Z,96.30
2018-07-06T16:26:32.724Z,96.10
2018-07-06T16:29:01.164Z,95.90
2018-07-06T16:31:29.661Z,96.40
2018-07-06T16:33:58.188Z,96.00
2018-07-06T16:36:26.957Z,96.70
2018-07-06T16:38:55.366Z,96.60
2018-07-06T16:41:23.828Z,96.80
2018-07-06T16:43:52.354Z,97.30
2018-07-06T16:46:20.886Z,96.50
2018-07-06T16:48:49.381Z,96.60
2018-07-06T16:51:17.904Z,96.80
2018-07-06T16:53:47.294Z,96.90
2018-07-06T16:56:15.892Z,97.30
2018-07-06T16:58:44.379Z,97.20
2018-07-06T17:01:12.896Z,97.30
2018-07-06T17:03:41.518Z,97.50
2018-07-06T17:06:09.989Z,97.70
2018-07-06T17:08:38.464Z,97.30
2018-07-06T17:11:06.969Z,98.10
2018-07-06T17:13:35.490Z,97.90
2018-07-06T17:16:04.234Z,97.30
2018-07-06T17:18:32.766Z,97.40
2018-07-06T17:21:01.347Z,98.10
2018-07-06T17:23:29.856Z,98.00
2018-07-06T17:25:58.330Z,98.50
2018-07-06T17:28:26.759Z,98.80
2018-07-06T17:30:55.333Z,99.00
2018-07-06T17:33:23.792Z,99.30
2018-07-06T17:35:52.368Z,99.40
2018-07-06T17:38:20.815Z,98.50
2018-07-06T17:40:49.334Z,98.80
2018-07-06T17:43:17.834Z,98.10
2018-07-06T17:45:46.375Z,96.20
2018-07-06T17:48:14.893Z,96.30
2018-07-06T17:50:43.364Z,96.60
2018-07-06T17:53:11.813Z,96.30
2018-07-06T17:55:40.319Z,96.30
2018-07-06T18:00:37.085Z,96.40
2018-07-06T18:03:05.682Z,96.60
2018-07-06T18:05:34.249Z,97.00
2018-07-06T18:08:02.709Z,96.70
2018-07-06T18:10:31.236Z,96.80
2018-07-06T18:12:59.829Z,97.30
2018-07-06T18:15:28.285Z,96.70
2018-07-06T18:17:57.005Z,97.30
2018-07-06T18:20:25.665Z,97.30
2018-07-06T18:22:54.216Z,97.80
2018-07-06T18:25:22.758Z,98.00
2018-07-06T18:27:51.209Z,98.30
2018-07-06T18:32:48.005Z,98.30
2018-07-06T18:35:16.439Z,98.60
2018-07-06T18:37:45.397Z,98.80
2018-07-06T18:40:13.864Z,99.20
2018-07-06T18:42:42.318Z,99.40
2018-07-06T18:45:11.584Z,99.60
2018-07-06T18:47:40.216Z,99.90
2018-07-06T18:50:08.628Z,99.90
2018-07-06T18:52:37.293Z,99.90
2018-07-06T18:55:06.093Z,99.90
2018-07-06T18:57:34.582Z,99.90
2018-07-06T19:00:04.347Z,99.90
2018-07-06T19:05:02.495Z,99.90
2018-07-06T19:07:31.039Z,99.90
2018-07-06T19:09:59.741Z,99.90
2018-07-06T19:12:28.306Z,99.90
2018-07-06T19:14:56.803Z,99.90
2018-07-06T19:17:25.307Z,99.90
2018-07-06T19:19:54.451Z,99.90
2018-07-06T19:24:51.213Z,99.90
2018-07-06T19:27:19.717Z,99.90
2018-07-06T19:29:48.276Z,99.90
2018-07-06T19:32:16.782Z,99.90
2018-07-06T19:34:45.250Z,99.90
2018-07-06T19:37:13.710Z,99.90
2018-07-06T19:42:10.606Z,99.90
2018-07-06T19:47:08.078Z,99.90
2018-07-06T19:49:36.654Z,99.90
2018-07-06T19:52:05.143Z,99.90
2018-07-06T19:54:33.613Z,99.90
2018-07-06T19:59:30.321Z,99.90
2018-07-06T20:01:58.822Z,99.90
2018-07-06T20:04:27.373Z,99.90
2018-07-06T20:06:56.021Z,99.90
2018-07-06T20:09:24.649Z,99.90
2018-07-06T20:11:53.294Z,99.90
2018-07-06T20:14:21.732Z,99.90
2018-07-06T20:16:50.500Z,99.90
2018-07-06T20:19:19.127Z,99.90
2018-07-06T20:21:47.578Z,99.90
2018-07-06T20:24:16.025Z,99.90
2018-07-06T20:26:44.635Z,99.90
2018-07-06T20:29:13.122Z,99.90
2018-07-06T20:31:41.586Z,99.90
2018-07-06T20:34:10.144Z,99.90
2018-07-06T20:36:38.648Z,99.90
2018-07-06T20:39:07.254Z,99.90
2018-07-06T20:41:35.783Z,99.90
2018-07-06T20:44:04.286Z,99.90
2018-07-06T20:46:33.212Z,99.90
2018-07-06T20:49:01.683Z,99.90
2018-07-06T20:51:30.232Z,99.90
2018-07-06T20:56:27.153Z,99.90
2018-07-06T20:58:55.708Z,99.90
2018-07-06T21:01:24.393Z,99.90
2018-07-06T21:03:53.098Z,99.90
2018-07-06T21:06:21.668Z,99.90
2018-07-06T21:08:50.352Z,99.90
2018-07-06T21:11:18.933Z,99.90
2018-07-06T21:13:47.479Z,99.90
2018-07-06T21:16:15.943Z,99.90
2018-07-06T21:18:44.430Z,99.90
2018-07-06T21:21:12.898Z,99.90
2018-07-06T21:23:41.404Z,99.90
2018-07-06T21:26:09.920Z,99.90
2018-07-06T21:28:38.383Z,99.90
2018-07-06T21:31:06.888Z,99.90
2018-07-06T21:36:03.513Z,99.90
2018-07-06T21:38:31.976Z,99.90
2018-07-06T21:41:01.741Z,99.90
2018-07-06T21:43:30.257Z,99.90
2018-07-06T21:46:00.044Z,99.90
2018-07-06T21:48:28.481Z,99.90
2018-07-06T21:50:56.981Z,99.90
2018-07-06T21:55:53.705Z,99.90
2018-07-06T21:58:22.261Z,99.90
2018-07-06T22:00:50.738Z,99.90
2018-07-06T22:03:19.300Z,99.90
2018-07-06T22:05:47.752Z,99.90
2018-07-06T22:08:16.220Z,99.90
2018-07-06T22:10:44.690Z,99.90
2018-07-06T22:13:13.144Z,99.90
2018-07-06T22:15:43.370Z,99.90
2018-07-06T22:18:13.492Z,99.90
2018-07-06T22:20:42.782Z,99.90
2018-07-06T22:23:11.260Z,99.90
2018-07-06T22:25:39.719Z,99.90
2018-07-06T22:28:08.223Z,99.90
2018-07-06T22:30:36.692Z,99.90
2018-07-06T22:33:05.536Z,99.90
2018-07-06T22:35:34.064Z,99.90
2018-07-06T22:38:02.485Z,99.90
2018-07-06T22:40:30.955Z,99.90
2018-07-06T22:42:59.542Z,99.90
2018-07-06T22:45:28.060Z,99.90
2018-07-06T22:47:56.532Z,99.90
2018-07-06T22:50:24.986Z,99.90
2018-07-06T22:52:53.496Z,99.90
2018-07-06T22:55:22.046Z,99.90
2018-07-06T22:57:50.692Z,99.90
2018-07-06T23:00:19.178Z,99.90
2018-07-06T23:02:47.650Z,99.90
2018-07-06T23:05:17.833Z,99.90
2018-07-06T23:07:46.290Z,99.90
2018-07-06T23:10:14.769Z,99.90
2018-07-06T23:12:43.216Z,99.90
2018-07-06T23:15:11.672Z,99.90
2018-07-06T23:17:40.153Z,99.90
2018-07-06T23:20:08.634Z,99.90
2018-07-06T23:23:02.602Z,99.90
2018-07-06T23:25:32.718Z,99.90
2018-07-06T23:28:01.192Z,99.90
2018-07-06T23:30:29.814Z,99.90
2018-07-06T23:32:59.803Z,99.90
2018-07-06T23:35:28.348Z,99.90
2018-07-06T23:37:57.096Z,99.90
2018-07-06T23:40:25.579Z,99.90
2018-07-06T23:42:54.099Z,99.90
2018-07-06T23:45:23.040Z,99.90
2018-07-06T23:47:51.553Z,99.90
2018-07-06T23:50:20.725Z,99.90
2018-07-06T23:52:49.197Z,99.90
2018-07-06T23:55:18.008Z,99.90
2018-07-06T23:57:46.877Z,99.90
